Millry, Alabama
Current Conditions -  °F | °C
As of 11:58 AM on Monday 24 Nov 2014 (Local Time) from KMEI Reporting Station
Clear Clear  
Wind Chill: 63°   Ceiling: Unl
Heat Index: 63°   Visibility: 10mi
Dew Point: 45°   Wind: 13mph
Humidity: 52%   Direction: 330°NNW
Pressure: 29.9"   Gusts: 21mph
Location:  31.63°N, 88.31°W
Report Text: KMEI 241758Z 33011G18KT 10SM CLR 17/07 A2990 RMK AO2 SLP121 T01720072 10172 20156 50008
Loading
Personal Weather Stations






























Interactive Weather Map New forecast layout! Learn more

10-Day Weather Forecast

Advertisements
Track Severe Weather on mobile